sensor_id;sensor_type;location;lat;lon;timestamp;P1;durP1;ratioP1;P2;durP2;ratioP2
10945;SDS011;5525;42.648;23.368;2023-02-01T00:01:35;5.20;;;4.43;;
10945;SDS011;5525;42.648;23.368;2023-02-01T00:04:08;6.57;;;4.13;;
10945;SDS011;5525;42.648;23.368;2023-02-01T00:06:36;5.10;;;4.30;;
10945;SDS011;5525;42.648;23.368;2023-02-01T00:09:05;5.05;;;4.25;;
10945;SDS011;5525;42.648;23.368;2023-02-01T00:11:32;4.97;;;4.25;;
10945;SDS011;5525;42.648;23.368;2023-02-01T00:14:00;4.68;;;4.10;;
10945;SDS011;5525;42.648;23.368;2023-02-01T00:16:29;6.05;;;4.05;;
10945;SDS011;5525;42.648;23.368;2023-02-01T00:18:59;5.68;;;4.65;;
10945;SDS011;5525;42.648;23.368;2023-02-01T00:21:30;5.57;;;4.88;;
10945;SDS011;5525;42.648;23.368;2023-02-01T00:23:58;6.63;;;5.72;;
10945;SDS011;5525;42.648;23.368;2023-02-01T00:26:26;7.72;;;6.30;;
10945;SDS011;5525;42.648;23.368;2023-02-01T00:28:57;8.85;;;7.68;;
10945;SDS011;5525;42.648;23.368;2023-02-01T00:31:24;5.80;;;4.60;;
10945;SDS011;5525;42.648;23.368;2023-02-01T00:33:50;4.82;;;4.10;;
10945;SDS011;5525;42.648;23.368;2023-02-01T00:36:19;4.55;;;4.15;;
10945;SDS011;5525;42.648;23.368;2023-02-01T00:38:46;5.28;;;4.25;;
10945;SDS011;5525;42.648;23.368;2023-02-01T00:41:14;6.00;;;4.50;;
10945;SDS011;5525;42.648;23.368;2023-02-01T00:43:42;4.63;;;4.18;;
10945;SDS011;5525;42.648;23.368;2023-02-01T00:46:11;5.05;;;4.30;;
10945;SDS011;5525;42.648;23.368;2023-02-01T00:48:39;5.35;;;4.20;;
10945;SDS011;5525;42.648;23.368;2023-02-01T00:51:07;4.43;;;4.00;;
10945;SDS011;5525;42.648;23.368;2023-02-01T00:53:38;5.50;;;3.85;;
10945;SDS011;5525;42.648;23.368;2023-02-01T00:56:05;4.68;;;3.97;;
10945;SDS011;5525;42.648;23.368;2023-02-01T00:58:33;3.55;;;3.20;;
10945;SDS011;5525;42.648;23.368;2023-02-01T01:01:01;5.07;;;3.75;;
10945;SDS011;5525;42.648;23.368;2023-02-01T01:03:29;4.22;;;3.67;;
10945;SDS011;5525;42.648;23.368;2023-02-01T01:05:58;5.13;;;3.90;;
10945;SDS011;5525;42.648;23.368;2023-02-01T01:08:26;3.80;;;3.40;;
10945;SDS011;5525;42.648;23.368;2023-02-01T01:10:55;3.72;;;3.40;;
10945;SDS011;5525;42.648;23.368;2023-02-01T01:13:22;5.68;;;3.38;;
10945;SDS011;5525;42.648;23.368;2023-02-01T01:15:50;5.20;;;3.63;;
10945;SDS011;5525;42.648;23.368;2023-02-01T01:18:18;7.10;;;3.92;;
10945;SDS011;5525;42.648;23.368;2023-02-01T01:20:48;4.00;;;3.58;;
10945;SDS011;5525;42.648;23.368;2023-02-01T01:23:18;4.72;;;3.92;;
10945;SDS011;5525;42.648;23.368;2023-02-01T01:25:51;4.40;;;3.40;;
10945;SDS011;5525;42.648;23.368;2023-02-01T01:28:24;4.40;;;3.10;;
10945;SDS011;5525;42.648;23.368;2023-02-01T01:30:57;4.10;;;3.08;;
10945;SDS011;5525;42.648;23.368;2023-02-01T01:33:27;4.13;;;3.13;;
10945;SDS011;5525;42.648;23.368;2023-02-01T01:35:55;5.15;;;3.40;;
10945;SDS011;5525;42.648;23.368;2023-02-01T01:38:27;4.80;;;3.17;;
10945;SDS011;5525;42.648;23.368;2023-02-01T01:41:03;3.72;;;2.97;;
10945;SDS011;5525;42.648;23.368;2023-02-01T01:43:46;5.07;;;3.25;;
10945;SDS011;5525;42.648;23.368;2023-02-01T01:46:20;5.15;;;3.45;;
10945;SDS011;5525;42.648;23.368;2023-02-01T01:48:49;3.33;;;2.83;;
10945;SDS011;5525;42.648;23.368;2023-02-01T01:51:20;3.53;;;2.78;;
10945;SDS011;5525;42.648;23.368;2023-02-01T01:53:52;2.90;;;2.53;;
10945;SDS011;5525;42.648;23.368;2023-02-01T01:56:25;3.95;;;2.90;;
10945;SDS011;5525;42.648;23.368;2023-02-01T01:58:55;4.35;;;3.15;;
10945;SDS011;5525;42.648;23.368;2023-02-01T02:01:22;3.40;;;3.03;;
10945;SDS011;5525;42.648;23.368;2023-02-01T02:03:49;3.97;;;3.15;;
10945;SDS011;5525;42.648;23.368;2023-02-01T02:06:23;5.47;;;3.20;;
10945;SDS011;5525;42.648;23.368;2023-02-01T02:09:02;2.85;;;2.55;;
10945;SDS011;5525;42.648;23.368;2023-02-01T02:11:32;6.57;;;2.92;;
10945;SDS011;5525;42.648;23.368;2023-02-01T02:13:59;3.65;;;3.00;;
10945;SDS011;5525;42.648;23.368;2023-02-01T02:16:35;5.15;;;3.30;;
10945;SDS011;5525;42.648;23.368;2023-02-01T02:19:23;3.53;;;2.70;;
10945;SDS011;5525;42.648;23.368;2023-02-01T02:22:28;4.45;;;3.25;;
10945;SDS011;5525;42.648;23.368;2023-02-01T02:28:33;6.30;;;3.30;;
10945;SDS011;5525;42.648;23.368;2023-02-01T02:31:30;5.65;;;3.17;;
10945;SDS011;5525;42.648;23.368;2023-02-01T02:34:16;4.38;;;3.00;;
10945;SDS011;5525;42.648;23.368;2023-02-01T02:36:50;6.80;;;3.30;;
10945;SDS011;5525;42.648;23.368;2023-02-01T02:39:28;3.55;;;3.00;;
10945;SDS011;5525;42.648;23.368;2023-02-01T02:42:10;5.60;;;3.05;;
10945;SDS011;5525;42.648;23.368;2023-02-01T02:45:00;4.63;;;2.67;;
10945;SDS011;5525;42.648;23.368;2023-02-01T02:47:50;4.43;;;2.95;;
10945;SDS011;5525;42.648;23.368;2023-02-01T02:50:25;3.90;;;2.88;;
10945;SDS011;5525;42.648;23.368;2023-02-01T02:53:14;8.07;;;2.90;;
10945;SDS011;5525;42.648;23.368;2023-02-01T02:56:01;4.75;;;2.60;;
10945;SDS011;5525;42.648;23.368;2023-02-01T02:58:49;3.97;;;2.40;;
10945;SDS011;5525;42.648;23.368;2023-02-01T03:01:35;4.43;;;2.90;;
10945;SDS011;5525;42.648;23.368;2023-02-01T03:04:22;2.80;;;2.35;;
10945;SDS011;5525;42.648;23.368;2023-02-01T03:06:55;3.22;;;2.50;;
10945;SDS011;5525;42.648;23.368;2023-02-01T03:09:24;3.72;;;2.50;;
10945;SDS011;5525;42.648;23.368;2023-02-01T03:11:59;2.33;;;1.88;;
10945;SDS011;5525;42.648;23.368;2023-02-01T03:14:49;2.92;;;2.10;;
10945;SDS011;5525;42.648;23.368;2023-02-01T03:17:31;3.70;;;2.33;;
10945;SDS011;5525;42.648;23.368;2023-02-01T03:20:02;2.10;;;1.50;;
10945;SDS011;5525;42.648;23.368;2023-02-01T03:22:35;4.07;;;2.20;;
10945;SDS011;5525;42.648;23.368;2023-02-01T03:25:07;4.18;;;2.22;;
10945;SDS011;5525;42.648;23.368;2023-02-01T03:27:46;3.80;;;2.28;;
10945;SDS011;5525;42.648;23.368;2023-02-01T03:30:20;4.32;;;2.05;;
10945;SDS011;5525;42.648;23.368;2023-02-01T03:32:49;2.33;;;1.88;;
10945;SDS011;5525;42.648;23.368;2023-02-01T03:35:29;3.88;;;2.30;;
10945;SDS011;5525;42.648;23.368;2023-02-01T03:38:03;3.42;;;2.15;;
10945;SDS011;5525;42.648;23.368;2023-02-01T03:40:39;2.55;;;2.00;;
10945;SDS011;5525;42.648;23.368;2023-02-01T03:43:12;2.33;;;2.13;;
10945;SDS011;5525;42.648;23.368;2023-02-01T03:45:45;3.20;;;2.00;;
10945;SDS011;5525;42.648;23.368;2023-02-01T03:48:20;3.63;;;2.35;;
10945;SDS011;5525;42.648;23.368;2023-02-01T03:50:50;2.75;;;2.05;;
10945;SDS011;5525;42.648;23.368;2023-02-01T03:53:22;2.90;;;2.00;;
10945;SDS011;5525;42.648;23.368;2023-02-01T03:55:51;2.83;;;2.00;;
10945;SDS011;5525;42.648;23.368;2023-02-01T03:58:20;2.67;;;2.10;;
10945;SDS011;5525;42.648;23.368;2023-02-01T04:00:50;2.15;;;1.60;;
10945;SDS011;5525;42.648;23.368;2023-02-01T04:03:18;5.95;;;2.00;;
10945;SDS011;5525;42.648;23.368;2023-02-01T04:05:48;2.60;;;1.90;;
10945;SDS011;5525;42.648;23.368;2023-02-01T04:08:19;2.88;;;1.98;;
10945;SDS011;5525;42.648;23.368;2023-02-01T04:10:48;2.13;;;1.90;;
10945;SDS011;5525;42.648;23.368;2023-02-01T04:13:15;2.63;;;1.92;;
10945;SDS011;5525;42.648;23.368;2023-02-01T04:15:43;3.33;;;2.17;;
10945;SDS011;5525;42.648;23.368;2023-02-01T04:18:15;3.40;;;2.17;;
10945;SDS011;5525;42.648;23.368;2023-02-01T04:20:42;2.22;;;2.00;;
10945;SDS011;5525;42.648;23.368;2023-02-01T04:23:10;3.35;;;1.90;;
10945;SDS011;5525;42.648;23.368;2023-02-01T04:25:37;4.18;;;2.40;;
10945;SDS011;5525;42.648;23.368;2023-02-01T04:28:06;3.00;;;2.35;;
10945;SDS011;5525;42.648;23.368;2023-02-01T04:30:34;4.07;;;1.90;;
10945;SDS011;5525;42.648;23.368;2023-02-01T04:33:04;3.45;;;2.08;;
10945;SDS011;5525;42.648;23.368;2023-02-01T04:35:31;6.50;;;2.40;;
10945;SDS011;5525;42.648;23.368;2023-02-01T04:37:58;3.78;;;2.50;;
10945;SDS011;5525;42.648;23.368;2023-02-01T04:40:25;5.65;;;2.35;;
10945;SDS011;5525;42.648;23.368;2023-02-01T04:42:52;3.70;;;2.60;;
10945;SDS011;5525;42.648;23.368;2023-02-01T04:45:21;4.55;;;2.80;;
10945;SDS011;5525;42.648;23.368;2023-02-01T04:47:49;3.75;;;2.63;;
10945;SDS011;5525;42.648;23.368;2023-02-01T04:50:16;6.07;;;3.05;;
10945;SDS011;5525;42.648;23.368;2023-02-01T04:52:43;3.20;;;2.85;;
10945;SDS011;5525;42.648;23.368;2023-02-01T04:55:12;4.00;;;3.05;;
10945;SDS011;5525;42.648;23.368;2023-02-01T04:57:44;6.60;;;3.10;;
10945;SDS011;5525;42.648;23.368;2023-02-01T05:00:13;4.50;;;3.03;;
10945;SDS011;5525;42.648;23.368;2023-02-01T05:02:43;4.13;;;2.83;;
10945;SDS011;5525;42.648;23.368;2023-02-01T05:05:12;3.97;;;3.17;;
10945;SDS011;5525;42.648;23.368;2023-02-01T05:07:45;5.95;;;3.35;;
10945;SDS011;5525;42.648;23.368;2023-02-01T05:10:12;6.07;;;3.30;;
10945;SDS011;5525;42.648;23.368;2023-02-01T05:12:39;5.93;;;3.33;;
10945;SDS011;5525;42.648;23.368;2023-02-01T05:15:26;4.93;;;3.60;;
10945;SDS011;5525;42.648;23.368;2023-02-01T05:17:54;3.42;;;2.95;;
10945;SDS011;5525;42.648;23.368;2023-02-01T05:20:22;5.55;;;3.60;;
10945;SDS011;5525;42.648;23.368;2023-02-01T05:22:51;5.47;;;3.20;;
10945;SDS011;5525;42.648;23.368;2023-02-01T05:25:18;5.82;;;3.78;;
10945;SDS011;5525;42.648;23.368;2023-02-01T05:27:45;5.85;;;3.55;;
10945;SDS011;5525;42.648;23.368;2023-02-01T05:30:12;6.80;;;3.95;;
10945;SDS011;5525;42.648;23.368;2023-02-01T05:32:41;4.18;;;3.33;;
10945;SDS011;5525;42.648;23.368;2023-02-01T05:35:09;5.22;;;3.40;;
10945;SDS011;5525;42.648;23.368;2023-02-01T05:37:36;6.40;;;3.40;;
10945;SDS011;5525;42.648;23.368;2023-02-01T05:40:04;8.20;;;4.03;;
10945;SDS011;5525;42.648;23.368;2023-02-01T05:42:33;5.15;;;3.30;;
10945;SDS011;5525;42.648;23.368;2023-02-01T05:45:00;7.65;;;3.92;;
10945;SDS011;5525;42.648;23.368;2023-02-01T05:47:27;4.22;;;3.10;;
10945;SDS011;5525;42.648;23.368;2023-02-01T05:49:54;4.55;;;3.85;;
10945;SDS011;5525;42.648;23.368;2023-02-01T05:52:22;5.43;;;3.75;;
10945;SDS011;5525;42.648;23.368;2023-02-01T05:54:49;5.20;;;3.60;;
10945;SDS011;5525;42.648;23.368;2023-02-01T05:57:27;5.65;;;3.40;;
10945;SDS011;5525;42.648;23.368;2023-02-01T06:00:00;5.97;;;3.72;;
10945;SDS011;5525;42.648;23.368;2023-02-01T06:02:27;6.80;;;3.78;;
10945;SDS011;5525;42.648;23.368;2023-02-01T06:04:54;4.57;;;4.07;;
10945;SDS011;5525;42.648;23.368;2023-02-01T06:07:24;7.65;;;4.38;;
10945;SDS011;5525;42.648;23.368;2023-02-01T06:09:55;5.63;;;3.33;;
10945;SDS011;5525;42.648;23.368;2023-02-01T06:12:41;5.35;;;3.70;;
10945;SDS011;5525;42.648;23.368;2023-02-01T06:15:08;6.93;;;3.50;;
10945;SDS011;5525;42.648;23.368;2023-02-01T06:17:35;9.05;;;3.35;;
10945;SDS011;5525;42.648;23.368;2023-02-01T06:20:04;5.10;;;3.30;;
10945;SDS011;5525;42.648;23.368;2023-02-01T06:22:37;6.30;;;3.00;;
10945;SDS011;5525;42.648;23.368;2023-02-01T06:25:05;3.95;;;3.40;;
10945;SDS011;5525;42.648;23.368;2023-02-01T06:27:34;4.65;;;3.30;;
10945;SDS011;5525;42.648;23.368;2023-02-01T06:30:02;6.55;;;3.30;;
10945;SDS011;5525;42.648;23.368;2023-02-01T06:32:34;6.20;;;2.92;;
10945;SDS011;5525;42.648;23.368;2023-02-01T06:35:01;7.85;;;3.30;;
10945;SDS011;5525;42.648;23.368;2023-02-01T06:37:28;4.68;;;2.65;;
10945;SDS011;5525;42.648;23.368;2023-02-01T06:39:58;5.85;;;2.65;;
10945;SDS011;5525;42.648;23.368;2023-02-01T06:42:26;6.57;;;2.90;;
10945;SDS011;5525;42.648;23.368;2023-02-01T06:44:53;5.63;;;3.20;;
10945;SDS011;5525;42.648;23.368;2023-02-01T06:47:22;5.40;;;2.70;;
10945;SDS011;5525;42.648;23.368;2023-02-01T06:49:49;3.33;;;2.40;;
10945;SDS011;5525;42.648;23.368;2023-02-01T06:52:18;4.15;;;2.95;;
10945;SDS011;5525;42.648;23.368;2023-02-01T06:54:45;3.78;;;2.20;;
10945;SDS011;5525;42.648;23.368;2023-02-01T06:57:18;5.82;;;2.67;;
10945;SDS011;5525;42.648;23.368;2023-02-01T06:59:45;5.40;;;2.88;;
10945;SDS011;5525;42.648;23.368;2023-02-01T07:02:13;4.32;;;2.90;;
10945;SDS011;5525;42.648;23.368;2023-02-01T07:04:41;4.70;;;2.78;;
10945;SDS011;5525;42.648;23.368;2023-02-01T07:07:13;7.18;;;2.80;;
10945;SDS011;5525;42.648;23.368;2023-02-01T07:09:50;5.25;;;3.30;;
10945;SDS011;5525;42.648;23.368;2023-02-01T07:12:36;5.85;;;2.95;;
10945;SDS011;5525;42.648;23.368;2023-02-01T07:15:06;3.75;;;2.10;;
10945;SDS011;5525;42.648;23.368;2023-02-01T07:17:39;5.07;;;2.42;;
10945;SDS011;5525;42.648;23.368;2023-02-01T07:20:07;7.82;;;3.50;;
10945;SDS011;5525;42.648;23.368;2023-02-01T07:22:41;6.13;;;2.80;;
10945;SDS011;5525;42.648;23.368;2023-02-01T07:25:15;7.72;;;2.75;;
10945;SDS011;5525;42.648;23.368;2023-02-01T07:27:49;4.32;;;2.40;;
10945;SDS011;5525;42.648;23.368;2023-02-01T07:30:17;10.43;;;3.15;;
10945;SDS011;5525;42.648;23.368;2023-02-01T07:32:47;7.30;;;3.08;;
10945;SDS011;5525;42.648;23.368;2023-02-01T07:35:17;6.55;;;2.80;;
10945;SDS011;5525;42.648;23.368;2023-02-01T07:37:46;6.40;;;3.22;;
10945;SDS011;5525;42.648;23.368;2023-02-01T07:40:14;4.07;;;2.60;;
10945;SDS011;5525;42.648;23.368;2023-02-01T07:42:55;14.70;;;4.30;;
10945;SDS011;5525;42.648;23.368;2023-02-01T07:45:23;2.72;;;2.10;;
10945;SDS011;5525;42.648;23.368;2023-02-01T07:47:54;5.75;;;2.15;;
10945;SDS011;5525;42.648;23.368;2023-02-01T07:50:24;4.88;;;1.90;;
10945;SDS011;5525;42.648;23.368;2023-02-01T07:52:55;5.82;;;2.55;;
10945;SDS011;5525;42.648;23.368;2023-02-01T07:55:27;2.20;;;2.00;;
10945;SDS011;5525;42.648;23.368;2023-02-01T07:57:58;2.78;;;2.25;;
10945;SDS011;5525;42.648;23.368;2023-02-01T08:00:27;2.67;;;2.00;;
10945;SDS011;5525;42.648;23.368;2023-02-01T08:03:16;5.95;;;2.03;;
10945;SDS011;5525;42.648;23.368;2023-02-01T08:05:48;3.90;;;2.40;;
10945;SDS011;5525;42.648;23.368;2023-02-01T08:08:21;5.53;;;2.70;;
10945;SDS011;5525;42.648;23.368;2023-02-01T08:11:06;5.95;;;2.22;;
10945;SDS011;5525;42.648;23.368;2023-02-01T08:13:40;4.40;;;2.50;;
10945;SDS011;5525;42.648;23.368;2023-02-01T08:16:09;6.28;;;2.90;;
10945;SDS011;5525;42.648;23.368;2023-02-01T08:18:46;6.68;;;2.80;;
10945;SDS011;5525;42.648;23.368;2023-02-01T08:21:14;6.53;;;3.50;;
10945;SDS011;5525;42.648;23.368;2023-02-01T08:23:48;8.48;;;2.60;;
10945;SDS011;5525;42.648;23.368;2023-02-01T08:26:21;4.07;;;2.67;;
10945;SDS011;5525;42.648;23.368;2023-02-01T08:28:55;3.15;;;2.03;;
10945;SDS011;5525;42.648;23.368;2023-02-01T08:31:25;3.95;;;2.25;;
10945;SDS011;5525;42.648;23.368;2023-02-01T08:33:54;5.75;;;2.45;;
10945;SDS011;5525;42.648;23.368;2023-02-01T08:36:22;4.85;;;1.90;;
10945;SDS011;5525;42.648;23.368;2023-02-01T08:38:50;3.83;;;1.90;;
10945;SDS011;5525;42.648;23.368;2023-02-01T08:41:19;7.28;;;2.38;;
10945;SDS011;5525;42.648;23.368;2023-02-01T08:43:52;3.00;;;2.20;;
10945;SDS011;5525;42.648;23.368;2023-02-01T08:46:21;3.20;;;2.25;;
10945;SDS011;5525;42.648;23.368;2023-02-01T08:48:49;2.85;;;1.88;;
10945;SDS011;5525;42.648;23.368;2023-02-01T08:51:19;5.00;;;2.35;;
10945;SDS011;5525;42.648;23.368;2023-02-01T08:53:48;6.97;;;2.42;;
10945;SDS011;5525;42.648;23.368;2023-02-01T08:56:17;5.93;;;2.65;;
10945;SDS011;5525;42.648;23.368;2023-02-01T08:58:46;7.47;;;3.17;;
10945;SDS011;5525;42.648;23.368;2023-02-01T09:01:17;5.05;;;2.40;;
10945;SDS011;5525;42.648;23.368;2023-02-01T09:03:53;3.88;;;2.42;;
10945;SDS011;5525;42.648;23.368;2023-02-01T09:06:21;4.32;;;2.35;;
10945;SDS011;5525;42.648;23.368;2023-02-01T09:09:09;3.05;;;2.05;;
10945;SDS011;5525;42.648;23.368;2023-02-01T09:11:37;3.08;;;2.55;;
10945;SDS011;5525;42.648;23.368;2023-02-01T09:14:10;4.93;;;2.53;;
10945;SDS011;5525;42.648;23.368;2023-02-01T09:16:40;6.10;;;2.38;;
10945;SDS011;5525;42.648;23.368;2023-02-01T09:19:07;7.13;;;2.70;;
10945;SDS011;5525;42.648;23.368;2023-02-01T09:21:35;2.88;;;2.13;;
10945;SDS011;5525;42.648;23.368;2023-02-01T09:24:03;3.72;;;1.83;;
10945;SDS011;5525;42.648;23.368;2023-02-01T09:26:38;3.65;;;2.00;;
10945;SDS011;5525;42.648;23.368;2023-02-01T09:29:12;6.43;;;2.25;;
10945;SDS011;5525;42.648;23.368;2023-02-01T09:31:47;5.07;;;2.00;;
10945;SDS011;5525;42.648;23.368;2023-02-01T09:34:21;7.55;;;2.40;;
10945;SDS011;5525;42.648;23.368;2023-02-01T09:36:50;5.15;;;2.20;;
10945;SDS011;5525;42.648;23.368;2023-02-01T09:39:22;4.03;;;1.70;;
10945;SDS011;5525;42.648;23.368;2023-02-01T09:41:54;4.50;;;2.10;;
10945;SDS011;5525;42.648;23.368;2023-02-01T09:44:45;4.13;;;2.10;;
10945;SDS011;5525;42.648;23.368;2023-02-01T09:47:21;2.90;;;1.52;;
10945;SDS011;5525;42.648;23.368;2023-02-01T09:49:54;4.68;;;2.20;;
10945;SDS011;5525;42.648;23.368;2023-02-01T09:52:36;4.72;;;2.90;;
10945;SDS011;5525;42.648;23.368;2023-02-01T09:55:13;6.43;;;2.35;;
10945;SDS011;5525;42.648;23.368;2023-02-01T09:57:50;4.70;;;2.22;;
10945;SDS011;5525;42.648;23.368;2023-02-01T10:00:26;5.07;;;2.25;;
10945;SDS011;5525;42.648;23.368;2023-02-01T10:03:08;3.25;;;2.20;;
10945;SDS011;5525;42.648;23.368;2023-02-01T10:05:51;4.57;;;2.22;;
10945;SDS011;5525;42.648;23.368;2023-02-01T10:08:29;5.10;;;1.90;;
10945;SDS011;5525;42.648;23.368;2023-02-01T10:11:15;3.80;;;1.88;;
10945;SDS011;5525;42.648;23.368;2023-02-01T10:13:58;4.10;;;1.80;;
10945;SDS011;5525;42.648;23.368;2023-02-01T10:16:38;3.47;;;1.60;;
10945;SDS011;5525;42.648;23.368;2023-02-01T10:19:27;3.22;;;1.80;;
10945;SDS011;5525;42.648;23.368;2023-02-01T10:22:13;5.07;;;1.85;;
10945;SDS011;5525;42.648;23.368;2023-02-01T10:24:55;3.58;;;1.80;;
10945;SDS011;5525;42.648;23.368;2023-02-01T10:27:33;5.47;;;1.98;;
10945;SDS011;5525;42.648;23.368;2023-02-01T10:30:04;3.33;;;1.70;;
10945;SDS011;5525;42.648;23.368;2023-02-01T10:32:42;3.67;;;1.70;;
10945;SDS011;5525;42.648;23.368;2023-02-01T10:35:14;4.25;;;2.58;;
10945;SDS011;5525;42.648;23.368;2023-02-01T10:37:47;4.65;;;2.17;;
10945;SDS011;5525;42.648;23.368;2023-02-01T10:40:17;3.30;;;1.75;;
10945;SDS011;5525;42.648;23.368;2023-02-01T10:42:54;4.97;;;2.10;;
10945;SDS011;5525;42.648;23.368;2023-02-01T10:45:28;2.35;;;1.58;;
10945;SDS011;5525;42.648;23.368;2023-02-01T10:48:05;3.17;;;1.65;;
10945;SDS011;5525;42.648;23.368;2023-02-01T10:50:44;3.78;;;1.90;;
10945;SDS011;5525;42.648;23.368;2023-02-01T10:53:20;5.97;;;2.20;;
10945;SDS011;5525;42.648;23.368;2023-02-01T10:55:54;4.65;;;2.00;;
10945;SDS011;5525;42.648;23.368;2023-02-01T10:58:36;5.85;;;2.08;;
10945;SDS011;5525;42.648;23.368;2023-02-01T11:01:09;4.53;;;1.95;;
10945;SDS011;5525;42.648;23.368;2023-02-01T11:03:44;5.97;;;2.13;;
10945;SDS011;5525;42.648;23.368;2023-02-01T11:06:16;3.40;;;1.70;;
10945;SDS011;5525;42.648;23.368;2023-02-01T11:08:53;2.90;;;1.67;;
10945;SDS011;5525;42.648;23.368;2023-02-01T11:11:25;2.60;;;1.83;;
10945;SDS011;5525;42.648;23.368;2023-02-01T11:13:55;4.90;;;1.83;;
10945;SDS011;5525;42.648;23.368;2023-02-01T11:16:33;5.72;;;1.80;;
10945;SDS011;5525;42.648;23.368;2023-02-01T11:19:08;8.45;;;2.17;;
10945;SDS011;5525;42.648;23.368;2023-02-01T11:21:43;3.13;;;1.50;;
10945;SDS011;5525;42.648;23.368;2023-02-01T11:24:16;2.80;;;1.60;;
10945;SDS011;5525;42.648;23.368;2023-02-01T11:26:49;2.75;;;1.80;;
10945;SDS011;5525;42.648;23.368;2023-02-01T11:29:20;1.85;;;1.50;;
10945;SDS011;5525;42.648;23.368;2023-02-01T11:31:56;2.33;;;1.58;;
10945;SDS011;5525;42.648;23.368;2023-02-01T11:34:36;5.38;;;1.90;;
10945;SDS011;5525;42.648;23.368;2023-02-01T11:37:13;3.55;;;1.77;;
10945;SDS011;5525;42.648;23.368;2023-02-01T11:39:52;2.63;;;1.60;;
10945;SDS011;5525;42.648;23.368;2023-02-01T11:42:22;3.95;;;1.70;;
10945;SDS011;5525;42.648;23.368;2023-02-01T11:44:49;4.95;;;2.50;;
10945;SDS011;5525;42.648;23.368;2023-02-01T11:47:21;5.47;;;2.17;;
10945;SDS011;5525;42.648;23.368;2023-02-01T11:49:51;2.78;;;1.40;;
10945;SDS011;5525;42.648;23.368;2023-02-01T11:52:27;4.25;;;1.60;;
10945;SDS011;5525;42.648;23.368;2023-02-01T11:55:15;3.55;;;1.65;;
10945;SDS011;5525;42.648;23.368;2023-02-01T11:57:56;3.47;;;1.40;;
10945;SDS011;5525;42.648;23.368;2023-02-01T12:00:44;2.45;;;1.20;;
10945;SDS011;5525;42.648;23.368;2023-02-01T12:06:23;2.05;;;1.52;;
10945;SDS011;5525;42.648;23.368;2023-02-01T12:12:08;3.03;;;1.50;;
10945;SDS011;5525;42.648;23.368;2023-02-01T12:17:42;4.22;;;1.40;;
10945;SDS011;5525;42.648;23.368;2023-02-01T12:20:28;5.45;;;1.70;;
10945;SDS011;5525;42.648;23.368;2023-02-01T12:23:12;2.60;;;1.50;;
10945;SDS011;5525;42.648;23.368;2023-02-01T12:26:01;2.50;;;1.50;;
10945;SDS011;5525;42.648;23.368;2023-02-01T12:28:49;1.98;;;1.20;;
10945;SDS011;5525;42.648;23.368;2023-02-01T12:31:43;2.30;;;1.65;;
10945;SDS011;5525;42.648;23.368;2023-02-01T12:34:29;1.60;;;1.35;;
10945;SDS011;5525;42.648;23.368;2023-02-01T12:37:10;1.83;;;1.50;;
10945;SDS011;5525;42.648;23.368;2023-02-01T12:39:52;2.13;;;1.52;;
10945;SDS011;5525;42.648;23.368;2023-02-01T12:42:32;3.00;;;1.80;;
10945;SDS011;5525;42.648;23.368;2023-02-01T12:45:09;2.83;;;1.67;;
10945;SDS011;5525;42.648;23.368;2023-02-01T12:47:44;2.20;;;1.35;;
10945;SDS011;5525;42.648;23.368;2023-02-01T12:50:18;3.13;;;1.70;;
10945;SDS011;5525;42.648;23.368;2023-02-01T12:52:51;2.03;;;1.50;;
10945;SDS011;5525;42.648;23.368;2023-02-01T12:55:20;1.73;;;1.58;;
10945;SDS011;5525;42.648;23.368;2023-02-01T12:57:52;2.65;;;1.90;;
10945;SDS011;5525;42.648;23.368;2023-02-01T13:00:25;4.55;;;1.88;;
10945;SDS011;5525;42.648;23.368;2023-02-01T13:03:10;3.22;;;1.85;;
10945;SDS011;5525;42.648;23.368;2023-02-01T13:05:47;4.75;;;1.90;;
10945;SDS011;5525;42.648;23.368;2023-02-01T13:08:29;2.50;;;1.88;;
10945;SDS011;5525;42.648;23.368;2023-02-01T13:11:10;4.10;;;1.38;;
10945;SDS011;5525;42.648;23.368;2023-02-01T13:13:52;2.53;;;1.67;;
10945;SDS011;5525;42.648;23.368;2023-02-01T13:16:27;4.00;;;1.70;;
10945;SDS011;5525;42.648;23.368;2023-02-01T13:19:00;2.33;;;1.63;;
10945;SDS011;5525;42.648;23.368;2023-02-01T13:21:39;4.32;;;1.60;;
10945;SDS011;5525;42.648;23.368;2023-02-01T13:24:15;1.92;;;1.35;;
10945;SDS011;5525;42.648;23.368;2023-02-01T13:26:53;3.45;;;1.40;;
10945;SDS011;5525;42.648;23.368;2023-02-01T13:29:26;3.22;;;1.55;;
10945;SDS011;5525;42.648;23.368;2023-02-01T13:32:20;3.33;;;1.55;;
10945;SDS011;5525;42.648;23.368;2023-02-01T13:35:16;2.30;;;1.20;;
10945;SDS011;5525;42.648;23.368;2023-02-01T13:41:00;1.85;;;1.50;;
10945;SDS011;5525;42.648;23.368;2023-02-01T13:43:47;3.10;;;1.98;;
10945;SDS011;5525;42.648;23.368;2023-02-01T13:46:18;2.47;;;1.52;;
10945;SDS011;5525;42.648;23.368;2023-02-01T13:48:47;2.30;;;1.70;;
10945;SDS011;5525;42.648;23.368;2023-02-01T13:51:30;5.07;;;2.30;;
10945;SDS011;5525;42.648;23.368;2023-02-01T13:54:03;4.28;;;1.38;;
10945;SDS011;5525;42.648;23.368;2023-02-01T13:56:40;2.40;;;1.33;;
10945;SDS011;5525;42.648;23.368;2023-02-01T14:02:42;2.00;;;1.27;;
10945;SDS011;5525;42.648;23.368;2023-02-01T14:08:25;1.48;;;1.27;;
10945;SDS011;5525;42.648;23.368;2023-02-01T14:11:04;1.85;;;1.40;;
10945;SDS011;5525;42.648;23.368;2023-02-01T14:13:32;2.05;;;1.40;;
10945;SDS011;5525;42.648;23.368;2023-02-01T14:16:10;2.85;;;1.83;;
10945;SDS011;5525;42.648;23.368;2023-02-01T14:21:34;4.00;;;1.40;;
10945;SDS011;5525;42.648;23.368;2023-02-01T14:24:15;4.22;;;1.60;;
10945;SDS011;5525;42.648;23.368;2023-02-01T14:26:48;4.38;;;1.60;;
10945;SDS011;5525;42.648;23.368;2023-02-01T14:29:24;4.70;;;1.80;;
10945;SDS011;5525;42.648;23.368;2023-02-01T14:32:01;4.68;;;1.80;;
10945;SDS011;5525;42.648;23.368;2023-02-01T14:34:48;2.97;;;1.48;;
10945;SDS011;5525;42.648;23.368;2023-02-01T14:37:25;2.00;;;1.50;;
10945;SDS011;5525;42.648;23.368;2023-02-01T14:39:56;3.67;;;1.75;;
10945;SDS011;5525;42.648;23.368;2023-02-01T14:42:31;4.43;;;1.95;;
10945;SDS011;5525;42.648;23.368;2023-02-01T14:51:10;4.38;;;1.80;;
10945;SDS011;5525;42.648;23.368;2023-02-01T14:53:40;3.10;;;2.10;;
10945;SDS011;5525;42.648;23.368;2023-02-01T14:56:11;2.05;;;1.83;;
10945;SDS011;5525;42.648;23.368;2023-02-01T14:58:47;3.55;;;1.80;;
10945;SDS011;5525;42.648;23.368;2023-02-01T15:01:24;3.85;;;2.00;;
10945;SDS011;5525;42.648;23.368;2023-02-01T15:04:00;2.63;;;1.60;;
10945;SDS011;5525;42.648;23.368;2023-02-01T15:06:36;3.15;;;1.45;;
10945;SDS011;5525;42.648;23.368;2023-02-01T15:09:09;2.92;;;2.00;;
10945;SDS011;5525;42.648;23.368;2023-02-01T15:14:33;4.75;;;1.83;;
10945;SDS011;5525;42.648;23.368;2023-02-01T15:17:15;2.50;;;1.90;;
10945;SDS011;5525;42.648;23.368;2023-02-01T15:19:53;4.03;;;1.85;;
10945;SDS011;5525;42.648;23.368;2023-02-01T15:22:36;4.03;;;1.83;;
10945;SDS011;5525;42.648;23.368;2023-02-01T15:25:18;2.90;;;1.83;;
10945;SDS011;5525;42.648;23.368;2023-02-01T15:27:47;4.63;;;1.90;;
10945;SDS011;5525;42.648;23.368;2023-02-01T15:30:21;2.72;;;1.92;;
10945;SDS011;5525;42.648;23.368;2023-02-01T15:33:04;4.22;;;1.75;;
10945;SDS011;5525;42.648;23.368;2023-02-01T15:35:36;4.70;;;1.75;;
10945;SDS011;5525;42.648;23.368;2023-02-01T15:41:12;4.25;;;1.92;;
10945;SDS011;5525;42.648;23.368;2023-02-01T15:43:46;3.78;;;1.90;;
10945;SDS011;5525;42.648;23.368;2023-02-01T15:46:31;2.50;;;1.70;;
10945;SDS011;5525;42.648;23.368;2023-02-01T15:49:04;2.25;;;1.60;;
10945;SDS011;5525;42.648;23.368;2023-02-01T15:51:44;2.90;;;1.52;;
10945;SDS011;5525;42.648;23.368;2023-02-01T15:54:22;2.70;;;1.60;;
10945;SDS011;5525;42.648;23.368;2023-02-01T15:56:57;2.67;;;1.50;;
10945;SDS011;5525;42.648;23.368;2023-02-01T15:59:30;1.58;;;1.17;;
10945;SDS011;5525;42.648;23.368;2023-02-01T16:04:58;3.00;;;1.67;;
10945;SDS011;5525;42.648;23.368;2023-02-01T16:07:36;2.88;;;2.10;;